createdAt,value
2018-07-07T00:00:51.119Z,99.90
2018-07-07T00:03:19.397Z,99.90
2018-07-07T00:05:47.673Z,99.90
2018-07-07T00:08:15.978Z,99.90
2018-07-07T00:10:44.428Z,99.90
2018-07-07T00:13:12.764Z,99.90
2018-07-07T00:15:41.048Z,99.90
2018-07-07T00:18:09.364Z,99.90
2018-07-07T00:20:37.670Z,99.90
2018-07-07T00:23:05.981Z,99.90
2018-07-07T00:25:34.332Z,99.90
2018-07-07T00:28:02.629Z,99.90
2018-07-07T00:30:30.902Z,99.90
2018-07-07T00:32:59.218Z,99.90
2018-07-07T00:35:27.495Z,99.90
2018-07-07T00:37:58.488Z,99.90
2018-07-07T00:40:26.812Z,99.90
2018-07-07T00:42:55.144Z,99.90
2018-07-07T00:45:23.563Z,99.90
2018-07-07T00:47:51.915Z,99.90
2018-07-07T00:50:20.194Z,99.90
2018-07-07T00:52:48.531Z,99.90
2018-07-07T00:57:44.838Z,99.90
2018-07-07T01:00:13.192Z,99.90
2018-07-07T01:02:41.530Z,99.90
2018-07-07T01:05:19.849Z,99.90
2018-07-07T01:07:48.160Z,99.90
2018-07-07T01:10:16.473Z,99.90
2018-07-07T01:12:44.765Z,99.90
2018-07-07T01:15:13.323Z,99.90
2018-07-07T01:17:41.670Z,99.90
2018-07-07T01:20:09.958Z,99.90
2018-07-07T01:22:38.264Z,99.90
2018-07-07T01:25:06.592Z,99.90
2018-07-07T01:27:34.889Z,99.90
2018-07-07T01:30:03.213Z,99.90
2018-07-07T01:32:31.622Z,99.90
2018-07-07T01:34:59.941Z,99.90
2018-07-07T01:37:28.454Z,99.90
2018-07-07T01:39:56.737Z,99.90
2018-07-07T01:42:25.072Z,99.90
2018-07-07T01:44:53.384Z,99.90
2018-07-07T01:47:21.718Z,99.90
2018-07-07T01:49:50.226Z,99.90
2018-07-07T01:52:18.552Z,99.90
2018-07-07T01:54:46.920Z,99.90
2018-07-07T01:57:15.180Z,99.90
2018-07-07T01:59:43.456Z,99.90
2018-07-07T02:02:11.754Z,99.90
2018-07-07T02:04:40.200Z,99.90
2018-07-07T02:07:08.511Z,99.90
2018-07-07T02:09:36.825Z,99.90
2018-07-07T02:12:05.179Z,99.90
2018-07-07T02:14:33.464Z,99.90
2018-07-07T02:17:01.838Z,99.90
2018-07-07T02:19:30.113Z,99.90
2018-07-07T02:21:58.382Z,99.90
2018-07-07T02:24:26.668Z,99.90
2018-07-07T02:26:55.166Z,99.90
2018-07-07T02:29:23.470Z,99.90
2018-07-07T02:31:51.777Z,99.90
2018-07-07T02:34:20.100Z,99.90
2018-07-07T02:36:48.406Z,99.90
2018-07-07T02:39:16.764Z,99.90
2018-07-07T02:41:45.081Z,99.90
2018-07-07T02:44:13.342Z,99.90
2018-07-07T02:46:41.743Z,99.90
2018-07-07T02:49:10.045Z,99.90
2018-07-07T02:51:38.332Z,99.90
2018-07-07T02:54:06.640Z,99.90
2018-07-07T02:56:34.948Z,99.90
2018-07-07T02:59:03.258Z,99.90
2018-07-07T03:01:31.538Z,99.90
2018-07-07T03:03:59.879Z,99.90
2018-07-07T03:06:28.125Z,99.90
2018-07-07T03:08:56.464Z,99.90
2018-07-07T03:11:24.778Z,99.90
2018-07-07T03:13:53.063Z,99.90
2018-07-07T03:16:21.349Z,99.90
2018-07-07T03:18:56.381Z,99.90
2018-07-07T03:21:24.903Z,99.90
2018-07-07T03:23:53.239Z,99.90
2018-07-07T03:26:21.516Z,99.90
2018-07-07T03:28:49.968Z,99.90
2018-07-07T03:33:46.258Z,99.90
2018-07-07T03:36:14.563Z,99.90
2018-07-07T03:38:42.912Z,99.90
2018-07-07T03:41:11.184Z,99.90
2018-07-07T03:43:39.446Z,99.90
2018-07-07T03:46:07.717Z,99.90
2018-07-07T03:48:36.136Z,99.90
2018-07-07T03:51:04.453Z,99.90
2018-07-07T03:53:32.744Z,99.90
2018-07-07T03:58:29.132Z,99.90
2018-07-07T04:00:57.599Z,99.90
2018-07-07T04:03:25.853Z,99.90
2018-07-07T04:05:54.189Z,99.90
2018-07-07T04:08:22.524Z,99.90
2018-07-07T04:10:50.845Z,99.90
2018-07-07T04:13:19.159Z,99.90
2018-07-07T04:15:47.480Z,99.90
2018-07-07T04:18:20.091Z,99.90
2018-07-07T04:20:48.397Z,99.90
2018-07-07T04:23:16.853Z,99.90
2018-07-07T04:25:45.186Z,99.90
2018-07-07T04:28:13.473Z,99.90
2018-07-07T04:30:41.857Z,99.90
2018-07-07T04:33:10.077Z,99.90
2018-07-07T04:35:38.761Z,99.90
2018-07-07T04:38:07.048Z,99.90
2018-07-07T04:40:35.329Z,99.90
2018-07-07T04:43:03.683Z,99.90
2018-07-07T04:45:32.090Z,99.90
2018-07-07T04:48:00.446Z,99.90
2018-07-07T04:50:28.728Z,99.90
2018-07-07T04:52:57.014Z,99.90
2018-07-07T04:55:25.288Z,99.90
2018-07-07T04:57:54.014Z,99.90
2018-07-07T05:00:22.522Z,99.90
2018-07-07T05:02:50.794Z,99.90
2018-07-07T05:05:19.074Z,99.90
2018-07-07T05:07:47.504Z,99.90
2018-07-07T05:10:15.900Z,99.90
2018-07-07T05:12:44.372Z,99.90
2018-07-07T05:15:12.674Z,99.90
2018-07-07T05:17:40.956Z,99.90
2018-07-07T05:20:09.384Z,99.90
2018-07-07T05:22:37.665Z,99.90
2018-07-07T05:25:05.973Z,99.90
2018-07-07T05:27:34.284Z,99.90
2018-07-07T05:30:02.576Z,99.90
2018-07-07T05:32:31.014Z,99.90
2018-07-07T05:34:59.314Z,99.90
2018-07-07T05:37:27.783Z,99.90
2018-07-07T05:39:56.594Z,99.90
2018-07-07T05:42:25.046Z,99.90
2018-07-07T05:44:53.427Z,99.90
2018-07-07T05:47:21.669Z,99.90
2018-07-07T05:49:49.976Z,99.90
2018-07-07T05:52:18.246Z,99.90
2018-07-07T05:54:46.595Z,99.90
2018-07-07T05:57:14.882Z,99.90
2018-07-07T05:59:43.170Z,99.90
2018-07-07T06:02:11.506Z,99.90
2018-07-07T06:04:39.800Z,99.90
2018-07-07T06:07:08.060Z,99.90
2018-07-07T06:09:36.494Z,99.90
2018-07-07T06:12:04.834Z,99.90
2018-07-07T06:14:33.197Z,99.90
2018-07-07T06:17:01.453Z,99.90
2018-07-07T06:19:29.713Z,99.90
2018-07-07T06:21:58.021Z,99.90
2018-07-07T06:24:26.314Z,99.90
2018-07-07T06:26:54.685Z,99.90
2018-07-07T06:29:22.958Z,99.90
2018-07-07T06:31:51.248Z,99.90
2018-07-07T06:34:19.624Z,99.90
2018-07-07T06:36:47.901Z,99.90
2018-07-07T06:39:16.191Z,99.90
2018-07-07T06:41:44.544Z,99.90
2018-07-07T06:44:13.033Z,99.90
2018-07-07T06:46:41.481Z,99.90
2018-07-07T06:49:09.758Z,99.90
2018-07-07T06:51:38.041Z,99.90
2018-07-07T06:54:06.393Z,99.90
2018-07-07T06:56:34.638Z,99.90
2018-07-07T06:59:02.984Z,99.90
2018-07-07T07:01:31.251Z,99.90
2018-07-07T07:03:59.497Z,99.90
2018-07-07T07:06:27.860Z,99.90
2018-07-07T07:08:56.134Z,99.90
2018-07-07T07:11:24.462Z,99.90
2018-07-07T07:13:52.744Z,99.90
2018-07-07T07:16:21.040Z,99.90
2018-07-07T07:18:49.310Z,99.90
2018-07-07T07:21:17.581Z,99.90
2018-07-07T07:23:45.918Z,99.90
2018-07-07T07:26:14.310Z,99.90
2018-07-07T07:28:42.578Z,99.90
2018-07-07T07:31:10.976Z,99.90
2018-07-07T07:33:39.234Z,99.90
2018-07-07T07:36:10.100Z,99.90
2018-07-07T07:38:38.397Z,99.90
2018-07-07T07:41:06.738Z,99.90
2018-07-07T07:43:35.039Z,99.90
2018-07-07T07:46:03.356Z,99.90
2018-07-07T07:50:59.866Z,99.90
2018-07-07T07:53:28.178Z,99.90
2018-07-07T07:55:56.461Z,99.90
2018-07-07T07:58:24.880Z,99.90
2018-07-07T08:00:53.296Z,99.90
2018-07-07T08:03:21.578Z,99.90
2018-07-07T08:05:50.026Z,99.90
2018-07-07T08:08:18.302Z,99.90
2018-07-07T08:10:46.606Z,99.90
2018-07-07T08:13:14.919Z,99.90
2018-07-07T08:15:43.194Z,99.90
2018-07-07T08:18:11.513Z,99.90
2018-07-07T08:20:39.792Z,99.90
2018-07-07T08:23:08.146Z,99.90
2018-07-07T08:25:36.608Z,99.90
2018-07-07T08:28:04.884Z,99.90
2018-07-07T08:30:33.196Z,99.90
2018-07-07T08:33:01.517Z,99.90
2018-07-07T08:35:29.832Z,99.90
2018-07-07T08:37:58.197Z,99.90
2018-07-07T08:40:26.454Z,99.90
2018-07-07T08:42:54.768Z,99.90
2018-07-07T08:45:23.057Z,99.90
2018-07-07T08:47:51.356Z,99.90
2018-07-07T08:50:19.635Z,99.90
2018-07-07T08:52:47.953Z,99.90
2018-07-07T08:55:16.204Z,99.90
2018-07-07T08:57:44.472Z,99.90
2018-07-07T09:00:12.812Z,99.90
2018-07-07T09:02:41.090Z,99.90
2018-07-07T09:05:09.352Z,99.90
2018-07-07T09:07:37.655Z,99.90
2018-07-07T09:10:06.186Z,99.90
2018-07-07T09:12:34.464Z,99.90
2018-07-07T09:15:02.801Z,99.90
2018-07-07T09:17:31.186Z,99.90
2018-07-07T09:19:59.570Z,99.90
2018-07-07T09:22:27.972Z,99.90
2018-07-07T09:24:56.254Z,99.90
2018-07-07T09:27:24.546Z,99.90
2018-07-07T09:29:52.871Z,99.90
2018-07-07T09:32:21.374Z,99.90
2018-07-07T09:34:49.662Z,99.90
2018-07-07T09:37:17.940Z,99.90
2018-07-07T09:39:46.304Z,99.90
2018-07-07T09:42:14.650Z,99.90
2018-07-07T09:44:42.968Z,99.90
2018-07-07T09:47:11.216Z,99.90
2018-07-07T09:49:39.478Z,99.90
2018-07-07T09:52:07.826Z,99.90
2018-07-07T09:54:36.158Z,99.90
2018-07-07T09:57:04.415Z,99.90
2018-07-07T09:59:32.780Z,99.90
2018-07-07T10:02:01.157Z,99.90
2018-07-07T10:04:29.417Z,99.90
2018-07-07T10:06:57.714Z,99.90
2018-07-07T10:09:25.982Z,99.90
2018-07-07T10:11:54.263Z,99.90
2018-07-07T10:14:22.610Z,99.90
2018-07-07T10:16:50.985Z,99.90
2018-07-07T10:19:19.363Z,99.90
2018-07-07T10:21:47.649Z,99.90
2018-07-07T10:24:15.951Z,99.90
2018-07-07T10:26:44.245Z,99.90
2018-07-07T10:29:12.507Z,99.90
2018-07-07T10:31:40.861Z,99.90
2018-07-07T10:34:09.167Z,99.90
2018-07-07T10:36:37.488Z,99.30
2018-07-07T10:39:06.158Z,99.90
2018-07-07T10:41:34.715Z,99.90
2018-07-07T10:44:03.059Z,99.40
2018-07-07T10:46:31.375Z,99.10
2018-07-07T10:48:59.662Z,99.60
2018-07-07T10:51:27.962Z,99.90
2018-07-07T10:53:56.254Z,99.90
2018-07-07T10:56:24.490Z,99.80
2018-07-07T10:58:52.798Z,99.80
2018-07-07T11:01:21.110Z,99.20
2018-07-07T11:03:49.387Z,98.70
2018-07-07T11:06:17.760Z,99.00
2018-07-07T11:08:46.074Z,98.90
2018-07-07T11:11:14.359Z,99.00
2018-07-07T11:13:42.602Z,99.10
2018-07-07T11:16:10.862Z,98.80
2018-07-07T11:18:39.140Z,97.70
2018-07-07T11:21:07.419Z,98.00
2018-07-07T11:23:35.670Z,97.90
2018-07-07T11:26:04.001Z,98.10
2018-07-07T11:28:32.336Z,97.00
2018-07-07T11:31:00.587Z,97.30
2018-07-07T11:33:28.950Z,96.80
2018-07-07T11:35:57.214Z,97.50
2018-07-07T11:38:25.518Z,97.70
2018-07-07T11:40:54.694Z,97.30
2018-07-07T11:43:23.000Z,96.50
2018-07-07T11:45:51.340Z,96.20
2018-07-07T11:48:19.647Z,96.60
2018-07-07T11:50:47.946Z,95.80
2018-07-07T11:53:16.278Z,95.90
2018-07-07T11:55:44.550Z,95.90
2018-07-07T11:58:12.795Z,95.00
2018-07-07T12:00:41.088Z,95.50
2018-07-07T12:03:09.392Z,95.50
2018-07-07T12:05:37.681Z,95.40
2018-07-07T12:08:13.874Z,94.80
2018-07-07T12:10:34.332Z,94.50
2018-07-07T12:13:02.610Z,94.50
2018-07-07T12:15:30.866Z,94.40
2018-07-07T12:17:59.214Z,94.00
2018-07-07T12:20:27.565Z,94.80
2018-07-07T12:22:55.944Z,94.80
2018-07-07T12:25:24.242Z,93.80
2018-07-07T12:27:52.525Z,94.10
2018-07-07T12:30:20.789Z,93.90
2018-07-07T12:32:49.086Z,93.90
2018-07-07T12:35:17.329Z,93.80
2018-07-07T12:37:45.640Z,93.40
2018-07-07T12:40:13.988Z,93.80
2018-07-07T12:42:42.247Z,93.40
2018-07-07T12:45:10.536Z,94.20
2018-07-07T12:47:38.800Z,94.20
2018-07-07T12:50:07.056Z,93.00
2018-07-07T12:52:35.328Z,93.20
2018-07-07T12:55:03.648Z,94.00
2018-07-07T12:57:31.930Z,94.30
2018-07-07T13:00:00.189Z,94.10
2018-07-07T13:02:28.484Z,94.10
2018-07-07T13:04:56.732Z,93.70
2018-07-07T13:07:25.012Z,92.50
2018-07-07T13:09:53.291Z,91.90
2018-07-07T13:12:21.712Z,92.70
2018-07-07T13:14:49.968Z,92.10
2018-07-07T13:17:18.238Z,92.00
2018-07-07T13:19:46.566Z,91.30
2018-07-07T13:22:14.870Z,91.40
2018-07-07T13:24:43.159Z,91.20
2018-07-07T13:27:11.460Z,91.70
2018-07-07T13:29:41.518Z,91.70
2018-07-07T13:32:10.226Z,91.80
2018-07-07T13:34:39.158Z,91.20
2018-07-07T13:37:07.449Z,90.80
2018-07-07T13:39:38.345Z,90.10
2018-07-07T13:42:07.671Z,91.10
2018-07-07T13:44:35.974Z,91.50
2018-07-07T13:47:04.355Z,90.80
2018-07-07T13:49:32.632Z,90.80
2018-07-07T13:52:00.972Z,90.80
2018-07-07T13:54:29.316Z,91.20
2018-07-07T13:56:57.630Z,91.10
2018-07-07T13:59:25.894Z,91.20
2018-07-07T14:01:54.182Z,90.50
2018-07-07T14:04:22.543Z,90.50
2018-07-07T14:06:50.858Z,90.10
2018-07-07T14:09:19.103Z,90.30
2018-07-07T14:11:47.420Z,90.30
2018-07-07T14:14:15.770Z,90.50
2018-07-07T14:16:44.117Z,90.80
2018-07-07T14:19:12.646Z,90.60
2018-07-07T14:21:40.922Z,90.20
2018-07-07T14:24:09.200Z,90.00
2018-07-07T14:26:37.456Z,90.00
2018-07-07T14:29:05.747Z,88.10
2018-07-07T14:31:34.058Z,87.00
2018-07-07T14:34:02.361Z,87.80
2018-07-07T14:36:30.811Z,89.00
2018-07-07T14:38:59.096Z,89.70
2018-07-07T14:41:27.384Z,88.50
2018-07-07T14:44:03.930Z,87.10
2018-07-07T14:46:33.034Z,87.60
2018-07-07T14:49:01.290Z,88.10
2018-07-07T14:51:29.608Z,86.30
2018-07-07T14:53:57.864Z,86.40
2018-07-07T14:56:26.844Z,87.10
2018-07-07T14:58:55.112Z,86.90
2018-07-07T15:01:23.389Z,85.60
2018-07-07T15:03:51.692Z,85.60
2018-07-07T15:06:19.980Z,84.00
2018-07-07T15:08:48.241Z,84.70
2018-07-07T15:11:16.573Z,85.80
2018-07-07T15:13:46.831Z,86.10
2018-07-07T15:16:15.160Z,85.70
2018-07-07T15:18:43.732Z,86.10
2018-07-07T15:21:12.006Z,87.60
2018-07-07T15:23:40.267Z,86.70
2018-07-07T15:26:08.568Z,85.20
2018-07-07T15:28:36.849Z,85.40
2018-07-07T15:31:05.124Z,85.30
2018-07-07T15:33:33.418Z,87.20
2018-07-07T15:36:01.744Z,85.80
2018-07-07T15:38:30.037Z,87.00
2018-07-07T15:40:58.327Z,87.00
2018-07-07T15:43:26.599Z,87.00
2018-07-07T15:45:54.936Z,88.20
2018-07-07T15:48:23.291Z,88.10
2018-07-07T15:50:51.623Z,88.40
2018-07-07T15:53:19.909Z,88.50
2018-07-07T15:55:48.182Z,87.00
2018-07-07T15:58:17.388Z,87.90
2018-07-07T16:00:45.749Z,86.90
2018-07-07T16:03:14.115Z,86.50
2018-07-07T16:05:42.516Z,86.40
2018-07-07T16:08:10.939Z,86.90
2018-07-07T16:10:39.500Z,87.30
2018-07-07T16:13:07.785Z,87.60
2018-07-07T16:15:36.103Z,88.80
2018-07-07T16:18:04.542Z,88.10
2018-07-07T16:20:32.816Z,87.50
2018-07-07T16:23:01.068Z,87.20
2018-07-07T16:25:29.373Z,86.80
2018-07-07T16:27:57.651Z,87.80
2018-07-07T16:30:25.946Z,89.00
2018-07-07T16:32:54.230Z,89.40
2018-07-07T16:35:22.538Z,89.70
2018-07-07T16:37:50.942Z,90.00
2018-07-07T16:40:19.232Z,90.00
2018-07-07T16:42:47.532Z,90.00
2018-07-07T16:45:15.823Z,89.80
2018-07-07T16:47:44.250Z,88.90
2018-07-07T16:50:12.740Z,88.80
2018-07-07T16:52:41.051Z,88.50
2018-07-07T16:55:09.336Z,88.40
2018-07-07T16:57:37.641Z,89.00
2018-07-07T17:00:06.158Z,90.10
2018-07-07T17:02:34.513Z,88.90
2018-07-07T17:05:02.784Z,88.90
2018-07-07T17:07:31.081Z,89.40
2018-07-07T17:09:59.389Z,90.00
2018-07-07T17:12:27.746Z,89.60
2018-07-07T17:14:56.004Z,90.20
2018-07-07T17:17:24.292Z,90.30
2018-07-07T17:19:52.650Z,90.60
2018-07-07T17:22:20.988Z,90.30
2018-07-07T17:24:49.309Z,90.10
2018-07-07T17:27:17.568Z,90.10
2018-07-07T17:29:45.907Z,90.50
2018-07-07T17:32:14.188Z,90.50
2018-07-07T17:34:42.593Z,90.90
2018-07-07T17:37:11.112Z,90.60
2018-07-07T17:39:39.468Z,90.70
2018-07-07T17:42:07.828Z,91.30
2018-07-07T17:44:36.111Z,91.10
2018-07-07T17:47:04.357Z,91.00
2018-07-07T17:49:32.702Z,90.70
2018-07-07T17:52:01.028Z,90.70
2018-07-07T17:54:29.317Z,90.20
2018-07-07T17:56:57.621Z,90.20
2018-07-07T17:59:25.977Z,91.00
2018-07-07T18:01:54.267Z,91.70
2018-07-07T18:04:22.609Z,91.80
2018-07-07T18:06:50.885Z,92.30
2018-07-07T18:09:19.173Z,92.40
2018-07-07T18:11:47.480Z,92.60
2018-07-07T18:14:15.786Z,92.80
2018-07-07T18:16:44.059Z,92.90
2018-07-07T18:19:12.362Z,93.60
2018-07-07T18:21:40.660Z,93.80
2018-07-07T18:24:08.965Z,93.60
2018-07-07T18:26:37.320Z,93.80
2018-07-07T18:29:05.639Z,94.20
2018-07-07T18:31:33.918Z,94.50
2018-07-07T18:34:02.320Z,94.90
2018-07-07T18:36:30.764Z,95.10
2018-07-07T18:38:59.093Z,94.60
2018-07-07T18:41:27.397Z,94.60
2018-07-07T18:43:55.686Z,94.60
2018-07-07T18:46:24.057Z,94.70
2018-07-07T18:48:52.420Z,95.10
2018-07-07T18:51:20.806Z,95.50
2018-07-07T18:53:49.208Z,96.10
2018-07-07T18:56:17.542Z,96.70
2018-07-07T18:58:45.823Z,96.90
2018-07-07T19:01:14.114Z,97.10
2018-07-07T19:03:42.636Z,97.00
2018-07-07T19:06:11.232Z,97.00
2018-07-07T19:08:39.829Z,97.20
2018-07-07T19:11:08.244Z,97.70
2018-07-07T19:13:36.585Z,98.00
2018-07-07T19:16:04.929Z,98.40
2018-07-07T19:18:33.305Z,98.60
2018-07-07T19:23:09.017Z,98.50
2018-07-07T19:25:42.743Z,98.70
2018-07-07T19:28:11.137Z,99.00
2018-07-07T19:30:39.447Z,99.30
2018-07-07T19:33:13.171Z,99.70
2018-07-07T19:35:46.831Z,99.90
2018-07-07T19:38:15.117Z,99.90
2018-07-07T19:40:43.487Z,99.90
2018-07-07T19:43:11.840Z,99.90
2018-07-07T19:45:40.124Z,99.90
2018-07-07T19:48:08.454Z,99.90
2018-07-07T19:50:36.743Z,99.90
2018-07-07T19:53:05.039Z,99.90
2018-07-07T19:55:33.382Z,99.90
2018-07-07T19:58:01.691Z,99.90
2018-07-07T20:00:29.958Z,99.90
2018-07-07T20:02:58.273Z,99.90
2018-07-07T20:05:26.571Z,99.90
2018-07-07T20:07:54.855Z,99.90
2018-07-07T20:10:23.180Z,99.90
2018-07-07T20:12:51.437Z,99.90
2018-07-07T20:15:24.993Z,99.90
2018-07-07T20:17:59.036Z,99.90
2018-07-07T20:20:33.648Z,99.90
2018-07-07T20:23:03.023Z,99.90
2018-07-07T20:25:31.405Z,99.90
2018-07-07T20:28:04.983Z,99.90
2018-07-07T20:30:33.875Z,99.90
2018-07-07T20:33:02.165Z,99.90
2018-07-07T20:35:30.688Z,99.90
2018-07-07T20:37:59.074Z,99.90
2018-07-07T20:40:27.514Z,99.90
2018-07-07T20:42:55.950Z,99.90
2018-07-07T20:45:24.411Z,99.90
2018-07-07T20:47:53.055Z,99.90
2018-07-07T20:50:21.413Z,99.90
2018-07-07T20:52:49.704Z,99.90
2018-07-07T20:55:17.998Z,99.90
2018-07-07T20:57:46.305Z,99.90
2018-07-07T21:00:14.869Z,99.90
2018-07-07T21:02:43.188Z,99.90
2018-07-07T21:05:11.563Z,99.90
2018-07-07T21:07:39.920Z,99.90
2018-07-07T21:10:08.261Z,99.90
2018-07-07T21:12:36.570Z,99.90
2018-07-07T21:15:04.923Z,99.90
2018-07-07T21:17:33.217Z,99.90
2018-07-07T21:20:01.605Z,99.90
2018-07-07T21:22:30.393Z,99.90
2018-07-07T21:24:58.749Z,99.90
2018-07-07T21:27:27.099Z,99.90
2018-07-07T21:29:55.460Z,99.90
2018-07-07T21:32:24.219Z,99.90
2018-07-07T21:34:52.611Z,99.90
2018-07-07T21:37:20.981Z,99.90
2018-07-07T21:39:49.321Z,99.90
2018-07-07T21:42:17.635Z,99.90
2018-07-07T21:44:45.941Z,99.90
2018-07-07T21:47:14.223Z,99.90
2018-07-07T21:49:42.564Z,99.90
2018-07-07T21:52:10.883Z,99.90
2018-07-07T21:54:39.183Z,99.90
2018-07-07T21:57:07.481Z,99.90
2018-07-07T21:59:35.786Z,99.90
2018-07-07T22:02:09.348Z,99.90
2018-07-07T22:04:42.935Z,99.90
2018-07-07T22:07:16.495Z,99.90
2018-07-07T22:09:44.759Z,99.90
2018-07-07T22:12:13.032Z,99.90
2018-07-07T22:14:41.327Z,99.90
2018-07-07T22:17:09.651Z,99.90
2018-07-07T22:19:38.034Z,99.90
2018-07-07T22:22:08.382Z,99.90
2018-07-07T22:24:36.924Z,99.90
2018-07-07T22:27:07.289Z,99.90
2018-07-07T22:29:35.598Z,99.90
2018-07-07T22:32:06.183Z,99.90
2018-07-07T22:34:35.764Z,99.90
2018-07-07T22:37:04.082Z,99.90
2018-07-07T22:39:41.923Z,99.90
2018-07-07T22:42:11.388Z,99.90
2018-07-07T22:44:40.584Z,99.90
2018-07-07T22:47:08.890Z,99.90
2018-07-07T22:49:37.240Z,99.90
2018-07-07T22:52:07.594Z,99.90
2018-07-07T22:54:35.914Z,99.90
2018-07-07T22:57:04.257Z,99.90
2018-07-07T22:59:32.540Z,99.90
2018-07-07T23:02:00.801Z,99.90
2018-07-07T23:04:29.070Z,99.90
2018-07-07T23:06:57.356Z,99.90
2018-07-07T23:09:25.638Z,99.90
2018-07-07T23:11:53.984Z,99.90
2018-07-07T23:14:22.339Z,99.90
2018-07-07T23:16:50.596Z,99.90
2018-07-07T23:19:18.887Z,99.90
2018-07-07T23:21:47.189Z,99.90
2018-07-07T23:24:15.632Z,99.90
2018-07-07T23:26:43.967Z,99.90
2018-07-07T23:29:12.250Z,99.90
2018-07-07T23:31:40.520Z,99.90
2018-07-07T23:34:08.790Z,99.90
2018-07-07T23:36:37.126Z,99.90
2018-07-07T23:39:06.071Z,99.90
2018-07-07T23:41:34.376Z,99.90
2018-07-07T23:44:02.662Z,99.90
2018-07-07T23:46:30.959Z,99.90
2018-07-07T23:48:59.217Z,99.90
2018-07-07T23:51:27.528Z,99.90
2018-07-07T23:53:55.800Z,99.90
2018-07-07T23:56:24.136Z,99.90
2018-07-07T23:58:52.779Z,99.90
